sensor_id;sensor_type;location;lat;lon;timestamp;temperature;humidity
43087;DHT22;28708;52.224;6.924;2024-03-06T00:00:28;7.30;99.90
43087;DHT22;28708;52.224;6.924;2024-03-06T00:02:54;7.30;99.90
43087;DHT22;28708;52.224;6.924;2024-03-06T00:05:20;7.30;99.90
43087;DHT22;28708;52.224;6.924;2024-03-06T00:07:46;7.30;99.90
43087;DHT22;28708;52.224;6.924;2024-03-06T00:10:11;7.30;99.90
43087;DHT22;28708;52.224;6.924;2024-03-06T00:12:37;7.40;99.90
43087;DHT22;28708;52.224;6.924;2024-03-06T00:15:03;7.30;99.90
43087;DHT22;28708;52.224;6.924;2024-03-06T00:17:29;7.30;99.90
43087;DHT22;28708;52.224;6.924;2024-03-06T00:19:55;7.30;99.90
43087;DHT22;28708;52.224;6.924;2024-03-06T00:22:20;7.30;99.90
43087;DHT22;28708;52.224;6.924;2024-03-06T00:24:46;7.30;99.90
43087;DHT22;28708;52.224;6.924;2024-03-06T00:27:13;7.40;99.90
43087;DHT22;28708;52.224;6.924;2024-03-06T00:29:39;7.40;99.90
43087;DHT22;28708;52.224;6.924;2024-03-06T00:32:05;7.30;99.90
43087;DHT22;28708;52.224;6.924;2024-03-06T00:34:30;7.30;99.90
43087;DHT22;28708;52.224;6.924;2024-03-06T00:36:57;7.40;99.90
43087;DHT22;28708;52.224;6.924;2024-03-06T00:39:22;7.30;99.90
43087;DHT22;28708;52.224;6.924;2024-03-06T00:41:51;7.30;99.90
43087;DHT22;28708;52.224;6.924;2024-03-06T00:44:17;7.20;99.90
43087;DHT22;28708;52.224;6.924;2024-03-06T00:46:42;7.30;99.90
43087;DHT22;28708;52.224;6.924;2024-03-06T00:49:08;7.20;99.90
43087;DHT22;28708;52.224;6.924;2024-03-06T00:51:34;7.20;99.90
43087;DHT22;28708;52.224;6.924;2024-03-06T00:54:03;7.30;99.90
43087;DHT22;28708;52.224;6.924;2024-03-06T00:56:30;7.30;99.90
43087;DHT22;28708;52.224;6.924;2024-03-06T00:58:56;7.20;99.90
43087;DHT22;28708;52.224;6.924;2024-03-06T01:01:22;7.20;99.90
43087;DHT22;28708;52.224;6.924;2024-03-06T01:03:47;7.30;99.90
43087;DHT22;28708;52.224;6.924;2024-03-06T01:06:13;7.30;99.90
43087;DHT22;28708;52.224;6.924;2024-03-06T01:08:39;7.20;99.90
43087;DHT22;28708;52.224;6.924;2024-03-06T01:11:04;7.20;99.90
43087;DHT22;28708;52.224;6.924;2024-03-06T01:13:31;7.30;99.90
43087;DHT22;28708;52.224;6.924;2024-03-06T01:15:56;7.30;99.90
43087;DHT22;28708;52.224;6.924;2024-03-06T01:18:22;7.20;99.90
43087;DHT22;28708;52.224;6.924;2024-03-06T01:20:48;7.30;99.90
43087;DHT22;28708;52.224;6.924;2024-03-06T01:23:13;7.20;99.90
43087;DHT22;28708;52.224;6.924;2024-03-06T01:25:39;7.30;99.90
43087;DHT22;28708;52.224;6.924;2024-03-06T01:28:05;7.30;99.90
43087;DHT22;28708;52.224;6.924;2024-03-06T01:30:30;7.30;99.90
43087;DHT22;28708;52.224;6.924;2024-03-06T01:32:56;7.30;99.90
43087;DHT22;28708;52.224;6.924;2024-03-06T01:35:22;7.30;99.90
43087;DHT22;28708;52.224;6.924;2024-03-06T01:37:48;7.40;99.90
43087;DHT22;28708;52.224;6.924;2024-03-06T01:40:14;7.40;99.90
43087;DHT22;28708;52.224;6.924;2024-03-06T01:42:40;7.40;99.90
43087;DHT22;28708;52.224;6.924;2024-03-06T01:45:06;7.50;99.90
43087;DHT22;28708;52.224;6.924;2024-03-06T01:47:32;7.40;99.90
43087;DHT22;28708;52.224;6.924;2024-03-06T01:49:59;7.30;99.90
43087;DHT22;28708;52.224;6.924;2024-03-06T01:52:25;7.40;99.90
43087;DHT22;28708;52.224;6.924;2024-03-06T01:54:51;7.40;99.90
43087;DHT22;28708;52.224;6.924;2024-03-06T01:57:18;7.40;99.90
43087;DHT22;28708;52.224;6.924;2024-03-06T01:59:45;7.40;99.90
43087;DHT22;28708;52.224;6.924;2024-03-06T02:02:10;7.40;99.90
43087;DHT22;28708;52.224;6.924;2024-03-06T02:04:39;7.40;99.90
43087;DHT22;28708;52.224;6.924;2024-03-06T02:07:09;7.30;99.90
43087;DHT22;28708;52.224;6.924;2024-03-06T02:09:36;7.30;99.90
43087;DHT22;28708;52.224;6.924;2024-03-06T02:12:02;7.30;99.90
43087;DHT22;28708;52.224;6.924;2024-03-06T02:14:29;7.40;99.90
43087;DHT22;28708;52.224;6.924;2024-03-06T02:16:54;7.30;99.90
43087;DHT22;28708;52.224;6.924;2024-03-06T02:19:20;7.40;99.90
43087;DHT22;28708;52.224;6.924;2024-03-06T02:21:46;7.30;99.90
43087;DHT22;28708;52.224;6.924;2024-03-06T02:24:12;7.40;99.90
43087;DHT22;28708;52.224;6.924;2024-03-06T02:26:38;7.30;99.90
43087;DHT22;28708;52.224;6.924;2024-03-06T02:29:04;7.30;99.90
43087;DHT22;28708;52.224;6.924;2024-03-06T02:31:31;7.30;99.90
43087;DHT22;28708;52.224;6.924;2024-03-06T02:33:58;7.30;99.90
43087;DHT22;28708;52.224;6.924;2024-03-06T02:36:24;7.30;99.90
43087;DHT22;28708;52.224;6.924;2024-03-06T02:38:50;7.30;99.90
43087;DHT22;28708;52.224;6.924;2024-03-06T02:41:15;7.30;99.90
43087;DHT22;28708;52.224;6.924;2024-03-06T02:43:41;7.30;99.90
43087;DHT22;28708;52.224;6.924;2024-03-06T02:46:10;7.30;99.90
43087;DHT22;28708;52.224;6.924;2024-03-06T02:48:36;7.30;99.90
43087;DHT22;28708;52.224;6.924;2024-03-06T02:51:01;7.30;99.90
43087;DHT22;28708;52.224;6.924;2024-03-06T02:53:27;7.30;99.90
43087;DHT22;28708;52.224;6.924;2024-03-06T02:55:53;7.30;99.90
43087;DHT22;28708;52.224;6.924;2024-03-06T02:58:19;7.30;99.90
43087;DHT22;28708;52.224;6.924;2024-03-06T03:00:44;7.30;99.90
43087;DHT22;28708;52.224;6.924;2024-03-06T03:03:10;7.20;99.90
43087;DHT22;28708;52.224;6.924;2024-03-06T03:05:40;7.30;99.90
43087;DHT22;28708;52.224;6.924;2024-03-06T03:08:08;7.30;99.90
43087;DHT22;28708;52.224;6.924;2024-03-06T03:10:34;7.20;99.90
43087;DHT22;28708;52.224;6.924;2024-03-06T03:13:00;7.30;99.90
43087;DHT22;28708;52.224;6.924;2024-03-06T03:15:26;7.30;99.90
43087;DHT22;28708;52.224;6.924;2024-03-06T03:17:51;7.30;99.90
43087;DHT22;28708;52.224;6.924;2024-03-06T03:20:17;7.20;99.90
43087;DHT22;28708;52.224;6.924;2024-03-06T03:22:43;7.20;99.90
43087;DHT22;28708;52.224;6.924;2024-03-06T03:25:13;7.20;99.90
43087;DHT22;28708;52.224;6.924;2024-03-06T03:27:39;7.20;99.90
43087;DHT22;28708;52.224;6.924;2024-03-06T03:30:12;7.20;99.90
43087;DHT22;28708;52.224;6.924;2024-03-06T03:32:38;7.20;99.90
43087;DHT22;28708;52.224;6.924;2024-03-06T03:35:05;7.20;99.90
43087;DHT22;28708;52.224;6.924;2024-03-06T03:37:31;7.10;99.90
43087;DHT22;28708;52.224;6.924;2024-03-06T03:39:57;7.10;99.90
43087;DHT22;28708;52.224;6.924;2024-03-06T03:42:22;7.20;99.90
43087;DHT22;28708;52.224;6.924;2024-03-06T03:44:48;7.20;99.90
43087;DHT22;28708;52.224;6.924;2024-03-06T03:47:14;7.20;99.90
43087;DHT22;28708;52.224;6.924;2024-03-06T03:49:39;7.10;99.90
43087;DHT22;28708;52.224;6.924;2024-03-06T03:52:05;7.10;99.90
43087;DHT22;28708;52.224;6.924;2024-03-06T03:54:31;7.10;99.90
43087;DHT22;28708;52.224;6.924;2024-03-06T03:56:56;7.20;99.90
43087;DHT22;28708;52.224;6.924;2024-03-06T03:59:24;7.20;99.90
43087;DHT22;28708;52.224;6.924;2024-03-06T04:01:50;7.20;99.90
43087;DHT22;28708;52.224;6.924;2024-03-06T04:04:16;7.20;99.90
43087;DHT22;28708;52.224;6.924;2024-03-06T04:06:42;7.10;99.90
43087;DHT22;28708;52.224;6.924;2024-03-06T04:09:07;7.10;99.90
43087;DHT22;28708;52.224;6.924;2024-03-06T04:11:36;7.10;99.90
43087;DHT22;28708;52.224;6.924;2024-03-06T04:14:06;7.10;99.90
43087;DHT22;28708;52.224;6.924;2024-03-06T04:16:32;7.10;99.90
43087;DHT22;28708;52.224;6.924;2024-03-06T04:18:58;7.10;99.90
43087;DHT22;28708;52.224;6.924;2024-03-06T04:21:24;7.10;99.90
43087;DHT22;28708;52.224;6.924;2024-03-06T04:23:49;7.10;99.90
43087;DHT22;28708;52.224;6.924;2024-03-06T04:26:15;7.10;99.90
43087;DHT22;28708;52.224;6.924;2024-03-06T04:28:43;7.10;99.90
43087;DHT22;28708;52.224;6.924;2024-03-06T04:31:09;7.10;99.90
43087;DHT22;28708;52.224;6.924;2024-03-06T04:33:35;7.20;99.90
43087;DHT22;28708;52.224;6.924;2024-03-06T04:36:04;7.10;99.90
43087;DHT22;28708;52.224;6.924;2024-03-06T04:38:34;7.10;99.90
43087;DHT22;28708;52.224;6.924;2024-03-06T04:41:00;7.00;99.90
43087;DHT22;28708;52.224;6.924;2024-03-06T04:43:25;7.10;99.90
43087;DHT22;28708;52.224;6.924;2024-03-06T04:45:51;7.00;99.90
43087;DHT22;28708;52.224;6.924;2024-03-06T04:48:17;7.00;99.90
43087;DHT22;28708;52.224;6.924;2024-03-06T04:50:42;7.10;99.90
43087;DHT22;28708;52.224;6.924;2024-03-06T04:53:09;7.00;99.90
43087;DHT22;28708;52.224;6.924;2024-03-06T04:55:36;7.10;99.90
43087;DHT22;28708;52.224;6.924;2024-03-06T04:58:02;7.00;99.90
43087;DHT22;28708;52.224;6.924;2024-03-06T05:00:29;7.00;99.90
43087;DHT22;28708;52.224;6.924;2024-03-06T05:02:55;7.10;99.90
43087;DHT22;28708;52.224;6.924;2024-03-06T05:05:21;7.00;99.90
43087;DHT22;28708;52.224;6.924;2024-03-06T05:07:48;6.90;99.90
43087;DHT22;28708;52.224;6.924;2024-03-06T05:10:13;6.90;99.90
43087;DHT22;28708;52.224;6.924;2024-03-06T05:12:41;7.00;99.90
43087;DHT22;28708;52.224;6.924;2024-03-06T05:15:07;7.00;99.90
43087;DHT22;28708;52.224;6.924;2024-03-06T05:17:33;7.00;99.90
43087;DHT22;28708;52.224;6.924;2024-03-06T05:19:59;7.00;99.90
43087;DHT22;28708;52.224;6.924;2024-03-06T05:22:25;6.90;99.90
43087;DHT22;28708;52.224;6.924;2024-03-06T05:24:52;7.00;99.90
43087;DHT22;28708;52.224;6.924;2024-03-06T05:27:18;7.00;99.90
43087;DHT22;28708;52.224;6.924;2024-03-06T05:29:44;7.00;99.90
43087;DHT22;28708;52.224;6.924;2024-03-06T05:32:10;6.90;99.90
43087;DHT22;28708;52.224;6.924;2024-03-06T05:34:35;6.90;99.90
43087;DHT22;28708;52.224;6.924;2024-03-06T05:37:01;6.90;99.90
43087;DHT22;28708;52.224;6.924;2024-03-06T05:39:30;7.00;99.90
43087;DHT22;28708;52.224;6.924;2024-03-06T05:41:59;7.00;99.90
43087;DHT22;28708;52.224;6.924;2024-03-06T05:44:25;7.00;99.90
43087;DHT22;28708;52.224;6.924;2024-03-06T05:46:50;7.00;99.90
43087;DHT22;28708;52.224;6.924;2024-03-06T05:49:16;7.00;99.90
43087;DHT22;28708;52.224;6.924;2024-03-06T05:51:41;6.90;99.90
43087;DHT22;28708;52.224;6.924;2024-03-06T05:54:07;7.00;99.90
43087;DHT22;28708;52.224;6.924;2024-03-06T05:56:37;7.00;99.90
43087;DHT22;28708;52.224;6.924;2024-03-06T05:59:04;7.00;99.90
43087;DHT22;28708;52.224;6.924;2024-03-06T06:01:34;7.00;99.90
43087;DHT22;28708;52.224;6.924;2024-03-06T06:04:00;7.00;99.90
43087;DHT22;28708;52.224;6.924;2024-03-06T06:06:26;6.90;99.90
43087;DHT22;28708;52.224;6.924;2024-03-06T06:08:52;6.90;99.90
43087;DHT22;28708;52.224;6.924;2024-03-06T06:11:17;6.90;99.90
43087;DHT22;28708;52.224;6.924;2024-03-06T06:13:43;6.90;99.90
43087;DHT22;28708;52.224;6.924;2024-03-06T06:16:09;6.90;99.90
43087;DHT22;28708;52.224;6.924;2024-03-06T06:18:34;7.00;99.90
43087;DHT22;28708;52.224;6.924;2024-03-06T06:21:00;7.00;99.90
43087;DHT22;28708;52.224;6.924;2024-03-06T06:23:26;7.00;99.90
43087;DHT22;28708;52.224;6.924;2024-03-06T06:25:52;7.00;99.90
43087;DHT22;28708;52.224;6.924;2024-03-06T06:28:17;7.00;99.90
43087;DHT22;28708;52.224;6.924;2024-03-06T06:30:43;7.00;99.90
43087;DHT22;28708;52.224;6.924;2024-03-06T06:33:09;7.00;99.90
43087;DHT22;28708;52.224;6.924;2024-03-06T06:35:35;7.10;99.90
43087;DHT22;28708;52.224;6.924;2024-03-06T06:38:01;7.10;99.90
43087;DHT22;28708;52.224;6.924;2024-03-06T06:40:27;7.10;99.90
43087;DHT22;28708;52.224;6.924;2024-03-06T06:42:54;7.10;99.90
43087;DHT22;28708;52.224;6.924;2024-03-06T06:45:20;7.20;99.90
43087;DHT22;28708;52.224;6.924;2024-03-06T06:47:46;7.20;99.90
43087;DHT22;28708;52.224;6.924;2024-03-06T06:50:12;7.20;99.90
43087;DHT22;28708;52.224;6.924;2024-03-06T06:52:39;7.20;99.90
43087;DHT22;28708;52.224;6.924;2024-03-06T06:55:05;7.20;99.90
43087;DHT22;28708;52.224;6.924;2024-03-06T06:57:31;7.20;99.90
43087;DHT22;28708;52.224;6.924;2024-03-06T06:59:59;7.20;99.90
43087;DHT22;28708;52.224;6.924;2024-03-06T07:02:24;7.20;99.90
43087;DHT22;28708;52.224;6.924;2024-03-06T07:04:51;7.20;99.90
43087;DHT22;28708;52.224;6.924;2024-03-06T07:07:17;7.10;99.90
43087;DHT22;28708;52.224;6.924;2024-03-06T07:09:43;7.20;99.90
43087;DHT22;28708;52.224;6.924;2024-03-06T07:12:09;7.20;99.90
43087;DHT22;28708;52.224;6.924;2024-03-06T07:14:35;7.30;99.90
43087;DHT22;28708;52.224;6.924;2024-03-06T07:17:01;7.30;99.90
43087;DHT22;28708;52.224;6.924;2024-03-06T07:19:26;7.30;99.90
43087;DHT22;28708;52.224;6.924;2024-03-06T07:21:52;7.30;99.90
43087;DHT22;28708;52.224;6.924;2024-03-06T07:24:19;7.30;99.90
43087;DHT22;28708;52.224;6.924;2024-03-06T07:26:44;7.30;99.90
43087;DHT22;28708;52.224;6.924;2024-03-06T07:29:10;7.20;99.90
43087;DHT22;28708;52.224;6.924;2024-03-06T07:31:43;7.30;99.90
43087;DHT22;28708;52.224;6.924;2024-03-06T07:34:09;7.20;99.90
43087;DHT22;28708;52.224;6.924;2024-03-06T07:36:35;7.30;99.90
43087;DHT22;28708;52.224;6.924;2024-03-06T07:39:01;7.30;99.90
43087;DHT22;28708;52.224;6.924;2024-03-06T07:41:28;7.40;99.90
43087;DHT22;28708;52.224;6.924;2024-03-06T07:43:53;7.40;99.90
43087;DHT22;28708;52.224;6.924;2024-03-06T07:46:19;7.40;99.90
43087;DHT22;28708;52.224;6.924;2024-03-06T07:48:44;7.50;99.90
43087;DHT22;28708;52.224;6.924;2024-03-06T07:51:10;7.50;99.90
43087;DHT22;28708;52.224;6.924;2024-03-06T07:53:36;7.40;99.90
43087;DHT22;28708;52.224;6.924;2024-03-06T07:56:05;7.50;99.90
43087;DHT22;28708;52.224;6.924;2024-03-06T07:58:31;7.50;99.90
43087;DHT22;28708;52.224;6.924;2024-03-06T08:00:56;7.50;99.90
43087;DHT22;28708;52.224;6.924;2024-03-06T08:03:25;7.50;99.90
43087;DHT22;28708;52.224;6.924;2024-03-06T08:05:52;7.60;99.90
43087;DHT22;28708;52.224;6.924;2024-03-06T08:08:20;7.50;99.90
43087;DHT22;28708;52.224;6.924;2024-03-06T08:10:46;7.50;99.90
43087;DHT22;28708;52.224;6.924;2024-03-06T08:13:12;7.60;99.90
43087;DHT22;28708;52.224;6.924;2024-03-06T08:15:39;7.60;99.90
43087;DHT22;28708;52.224;6.924;2024-03-06T08:18:05;7.60;99.90
43087;DHT22;28708;52.224;6.924;2024-03-06T08:20:31;7.70;99.90
43087;DHT22;28708;52.224;6.924;2024-03-06T08:22:58;7.70;99.90
43087;DHT22;28708;52.224;6.924;2024-03-06T08:25:24;7.60;99.90
43087;DHT22;28708;52.224;6.924;2024-03-06T08:27:50;7.40;99.90
43087;DHT22;28708;52.224;6.924;2024-03-06T08:30:15;7.50;99.90
43087;DHT22;28708;52.224;6.924;2024-03-06T08:32:59;7.50;99.90
43087;DHT22;28708;52.224;6.924;2024-03-06T08:35:24;7.60;99.90
43087;DHT22;28708;52.224;6.924;2024-03-06T08:37:50;7.80;99.90
43087;DHT22;28708;52.224;6.924;2024-03-06T08:40:17;8.00;99.90
43087;DHT22;28708;52.224;6.924;2024-03-06T08:42:52;8.10;99.90
43087;DHT22;28708;52.224;6.924;2024-03-06T08:45:18;7.90;99.90
43087;DHT22;28708;52.224;6.924;2024-03-06T08:47:45;7.90;99.90
43087;DHT22;28708;52.224;6.924;2024-03-06T08:50:11;7.70;99.90
43087;DHT22;28708;52.224;6.924;2024-03-06T08:52:38;7.80;99.90
43087;DHT22;28708;52.224;6.924;2024-03-06T08:55:05;8.00;99.90
43087;DHT22;28708;52.224;6.924;2024-03-06T08:57:34;8.30;99.90
43087;DHT22;28708;52.224;6.924;2024-03-06T09:00:00;8.30;99.90
43087;DHT22;28708;52.224;6.924;2024-03-06T09:02:26;8.40;99.90
43087;DHT22;28708;52.224;6.924;2024-03-06T09:04:52;8.30;99.90
43087;DHT22;28708;52.224;6.924;2024-03-06T09:07:18;8.20;99.90
43087;DHT22;28708;52.224;6.924;2024-03-06T09:09:45;8.30;99.90
43087;DHT22;28708;52.224;6.924;2024-03-06T09:12:11;8.40;99.90
43087;DHT22;28708;52.224;6.924;2024-03-06T09:14:37;8.60;99.90
43087;DHT22;28708;52.224;6.924;2024-03-06T09:17:03;8.80;99.90
43087;DHT22;28708;52.224;6.924;2024-03-06T09:19:30;8.80;99.90
43087;DHT22;28708;52.224;6.924;2024-03-06T09:21:55;8.90;99.90
43087;DHT22;28708;52.224;6.924;2024-03-06T09:24:22;9.00;99.90
43087;DHT22;28708;52.224;6.924;2024-03-06T09:26:52;8.80;99.90
43087;DHT22;28708;52.224;6.924;2024-03-06T09:29:18;9.10;99.90
43087;DHT22;28708;52.224;6.924;2024-03-06T09:31:44;9.10;99.90
43087;DHT22;28708;52.224;6.924;2024-03-06T09:34:11;9.10;99.90
43087;DHT22;28708;52.224;6.924;2024-03-06T09:36:41;9.10;99.90
43087;DHT22;28708;52.224;6.924;2024-03-06T09:39:14;9.40;99.90
43087;DHT22;28708;52.224;6.924;2024-03-06T09:41:45;9.30;99.90
43087;DHT22;28708;52.224;6.924;2024-03-06T09:44:12;9.40;99.90
43087;DHT22;28708;52.224;6.924;2024-03-06T09:46:43;9.40;99.90
43087;DHT22;28708;52.224;6.924;2024-03-06T09:49:11;9.30;99.90
43087;DHT22;28708;52.224;6.924;2024-03-06T09:51:42;9.30;99.90
43087;DHT22;28708;52.224;6.924;2024-03-06T09:54:12;9.30;99.90
43087;DHT22;28708;52.224;6.924;2024-03-06T09:56:38;9.40;99.90
43087;DHT22;28708;52.224;6.924;2024-03-06T09:59:04;9.40;99.90
43087;DHT22;28708;52.224;6.924;2024-03-06T10:01:31;9.70;99.90
43087;DHT22;28708;52.224;6.924;2024-03-06T10:03:57;9.50;99.90
43087;DHT22;28708;52.224;6.924;2024-03-06T10:06:23;9.80;99.90
43087;DHT22;28708;52.224;6.924;2024-03-06T10:08:50;9.90;99.90
43087;DHT22;28708;52.224;6.924;2024-03-06T10:11:17;10.10;99.90
43087;DHT22;28708;52.224;6.924;2024-03-06T10:13:43;10.10;99.90
43087;DHT22;28708;52.224;6.924;2024-03-06T10:16:09;10.40;99.90
43087;DHT22;28708;52.224;6.924;2024-03-06T10:18:35;11.20;99.90
43087;DHT22;28708;52.224;6.924;2024-03-06T10:21:01;12.60;99.90
43087;DHT22;28708;52.224;6.924;2024-03-06T10:23:27;12.20;99.90
43087;DHT22;28708;52.224;6.924;2024-03-06T10:25:54;11.70;99.90
43087;DHT22;28708;52.224;6.924;2024-03-06T10:28:22;12.40;99.90
43087;DHT22;28708;52.224;6.924;2024-03-06T10:30:48;12.20;99.90
43087;DHT22;28708;52.224;6.924;2024-03-06T10:33:16;12.00;99.90
43087;DHT22;28708;52.224;6.924;2024-03-06T10:35:44;12.50;99.90
43087;DHT22;28708;52.224;6.924;2024-03-06T10:38:10;13.70;99.90
43087;DHT22;28708;52.224;6.924;2024-03-06T10:40:40;13.40;99.90
43087;DHT22;28708;52.224;6.924;2024-03-06T10:43:07;13.10;99.90
43087;DHT22;28708;52.224;6.924;2024-03-06T10:48:08;14.00;99.90
43087;DHT22;28708;52.224;6.924;2024-03-06T10:50:41;14.60;99.90
43087;DHT22;28708;52.224;6.924;2024-03-06T10:53:10;15.10;99.90
43087;DHT22;28708;52.224;6.924;2024-03-06T10:55:36;14.90;99.90
43087;DHT22;28708;52.224;6.924;2024-03-06T10:58:08;14.90;99.90
43087;DHT22;28708;52.224;6.924;2024-03-06T11:00:41;15.20;99.90
43087;DHT22;28708;52.224;6.924;2024-03-06T11:03:10;14.70;99.90
43087;DHT22;28708;52.224;6.924;2024-03-06T11:05:42;15.20;99.90
43087;DHT22;28708;52.224;6.924;2024-03-06T11:08:10;15.30;99.90
43087;DHT22;28708;52.224;6.924;2024-03-06T11:10:38;14.70;99.90
43087;DHT22;28708;52.224;6.924;2024-03-06T11:13:30;14.20;99.90
43087;DHT22;28708;52.224;6.924;2024-03-06T11:15:58;13.40;99.90
43087;DHT22;28708;52.224;6.924;2024-03-06T11:21:27;11.60;99.90
43087;DHT22;28708;52.224;6.924;2024-03-06T11:26:36;11.90;99.90
43087;DHT22;28708;52.224;6.924;2024-03-06T11:29:02;13.00;99.90
43087;DHT22;28708;52.224;6.924;2024-03-06T11:31:27;14.00;99.90
43087;DHT22;28708;52.224;6.924;2024-03-06T11:33:54;14.30;99.90
43087;DHT22;28708;52.224;6.924;2024-03-06T11:36:26;14.80;99.90
43087;DHT22;28708;52.224;6.924;2024-03-06T11:44:08;15.10;99.90
43087;DHT22;28708;52.224;6.924;2024-03-06T11:46:43;15.60;99.90
43087;DHT22;28708;52.224;6.924;2024-03-06T11:51:55;15.70;99.90
43087;DHT22;28708;52.224;6.924;2024-03-06T11:54:21;15.50;99.90
43087;DHT22;28708;52.224;6.924;2024-03-06T11:56:51;13.90;99.90
43087;DHT22;28708;52.224;6.924;2024-03-06T11:59:24;13.00;99.90
43087;DHT22;28708;52.224;6.924;2024-03-06T12:01:58;12.80;99.90
43087;DHT22;28708;52.224;6.924;2024-03-06T12:04:24;12.20;99.90
43087;DHT22;28708;52.224;6.924;2024-03-06T12:06:50;11.70;99.90
43087;DHT22;28708;52.224;6.924;2024-03-06T12:09:16;11.90;99.90
43087;DHT22;28708;52.224;6.924;2024-03-06T12:11:43;12.10;99.90
43087;DHT22;28708;52.224;6.924;2024-03-06T12:14:19;11.60;99.90
43087;DHT22;28708;52.224;6.924;2024-03-06T12:16:57;11.70;99.90
43087;DHT22;28708;52.224;6.924;2024-03-06T12:19:26;11.60;99.90
43087;DHT22;28708;52.224;6.924;2024-03-06T12:21:52;11.40;99.90
43087;DHT22;28708;52.224;6.924;2024-03-06T12:24:19;11.40;99.90
43087;DHT22;28708;52.224;6.924;2024-03-06T12:26:45;11.50;99.90
43087;DHT22;28708;52.224;6.924;2024-03-06T12:29:18;11.80;99.90
43087;DHT22;28708;52.224;6.924;2024-03-06T12:31:46;11.90;99.90
43087;DHT22;28708;52.224;6.924;2024-03-06T12:34:15;12.10;99.90
43087;DHT22;28708;52.224;6.924;2024-03-06T12:36:45;12.20;99.90
43087;DHT22;28708;52.224;6.924;2024-03-06T12:39:15;12.00;99.90
43087;DHT22;28708;52.224;6.924;2024-03-06T12:41:46;12.10;99.90
43087;DHT22;28708;52.224;6.924;2024-03-06T12:44:13;12.10;99.90
43087;DHT22;28708;52.224;6.924;2024-03-06T12:46:38;12.10;99.90
43087;DHT22;28708;52.224;6.924;2024-03-06T12:49:04;11.90;99.90
43087;DHT22;28708;52.224;6.924;2024-03-06T12:51:30;11.70;99.90
43087;DHT22;28708;52.224;6.924;2024-03-06T12:53:55;11.70;99.90
43087;DHT22;28708;52.224;6.924;2024-03-06T12:56:21;11.50;99.90
43087;DHT22;28708;52.224;6.924;2024-03-06T12:58:46;11.30;99.90
43087;DHT22;28708;52.224;6.924;2024-03-06T13:01:12;10.80;99.90
43087;DHT22;28708;52.224;6.924;2024-03-06T13:03:38;10.90;99.90
43087;DHT22;28708;52.224;6.924;2024-03-06T13:06:04;11.00;99.90
43087;DHT22;28708;52.224;6.924;2024-03-06T13:08:31;11.20;99.90
43087;DHT22;28708;52.224;6.924;2024-03-06T13:10:56;11.30;99.90
43087;DHT22;28708;52.224;6.924;2024-03-06T13:13:22;11.40;99.90
43087;DHT22;28708;52.224;6.924;2024-03-06T13:15:50;11.50;99.90
43087;DHT22;28708;52.224;6.924;2024-03-06T13:18:16;11.50;99.90
43087;DHT22;28708;52.224;6.924;2024-03-06T13:20:42;11.30;99.90
43087;DHT22;28708;52.224;6.924;2024-03-06T13:23:08;11.40;99.90
43087;DHT22;28708;52.224;6.924;2024-03-06T13:25:33;11.60;99.90
43087;DHT22;28708;52.224;6.924;2024-03-06T13:27:59;11.80;99.90
43087;DHT22;28708;52.224;6.924;2024-03-06T13:30:25;12.20;99.90
43087;DHT22;28708;52.224;6.924;2024-03-06T13:32:51;12.30;99.90
43087;DHT22;28708;52.224;6.924;2024-03-06T13:35:17;12.00;99.90
43087;DHT22;28708;52.224;6.924;2024-03-06T13:37:43;12.00;99.90
43087;DHT22;28708;52.224;6.924;2024-03-06T13:40:12;12.20;99.90
43087;DHT22;28708;52.224;6.924;2024-03-06T13:42:42;12.40;99.90
43087;DHT22;28708;52.224;6.924;2024-03-06T13:45:09;12.30;99.90
43087;DHT22;28708;52.224;6.924;2024-03-06T13:47:45;12.20;99.90
43087;DHT22;28708;52.224;6.924;2024-03-06T13:50:13;12.30;99.90
43087;DHT22;28708;52.224;6.924;2024-03-06T13:52:40;12.00;99.90
43087;DHT22;28708;52.224;6.924;2024-03-06T13:55:06;12.10;99.90
43087;DHT22;28708;52.224;6.924;2024-03-06T13:57:33;12.10;99.90
43087;DHT22;28708;52.224;6.924;2024-03-06T14:00:03;12.20;99.90
43087;DHT22;28708;52.224;6.924;2024-03-06T14:02:37;12.50;99.90
43087;DHT22;28708;52.224;6.924;2024-03-06T14:05:03;12.60;99.90
43087;DHT22;28708;52.224;6.924;2024-03-06T14:07:28;12.60;99.90
43087;DHT22;28708;52.224;6.924;2024-03-06T14:09:54;12.70;99.90
43087;DHT22;28708;52.224;6.924;2024-03-06T14:12:22;12.60;99.90
43087;DHT22;28708;52.224;6.924;2024-03-06T14:14:48;13.00;99.90
43087;DHT22;28708;52.224;6.924;2024-03-06T14:17:13;12.80;99.90
43087;DHT22;28708;52.224;6.924;2024-03-06T14:19:40;13.00;99.90
43087;DHT22;28708;52.224;6.924;2024-03-06T14:22:07;13.00;99.90
43087;DHT22;28708;52.224;6.924;2024-03-06T14:24:32;12.70;99.90
43087;DHT22;28708;52.224;6.924;2024-03-06T14:26:58;12.60;99.90
43087;DHT22;28708;52.224;6.924;2024-03-06T14:29:24;12.70;99.90
43087;DHT22;28708;52.224;6.924;2024-03-06T14:31:51;12.00;99.90
43087;DHT22;28708;52.224;6.924;2024-03-06T14:34:17;11.70;99.90
43087;DHT22;28708;52.224;6.924;2024-03-06T14:36:42;11.80;99.90
43087;DHT22;28708;52.224;6.924;2024-03-06T14:39:08;11.80;99.90
43087;DHT22;28708;52.224;6.924;2024-03-06T14:41:36;11.70;99.90
43087;DHT22;28708;52.224;6.924;2024-03-06T14:44:02;11.50;99.90
43087;DHT22;28708;52.224;6.924;2024-03-06T14:46:28;11.30;99.90
43087;DHT22;28708;52.224;6.924;2024-03-06T14:48:54;11.30;99.90
43087;DHT22;28708;52.224;6.924;2024-03-06T14:51:21;11.20;99.90
43087;DHT22;28708;52.224;6.924;2024-03-06T14:53:47;11.10;99.90
43087;DHT22;28708;52.224;6.924;2024-03-06T14:56:13;11.10;99.90
43087;DHT22;28708;52.224;6.924;2024-03-06T14:58:39;11.20;99.90
43087;DHT22;28708;52.224;6.924;2024-03-06T15:01:05;11.20;99.90
43087;DHT22;28708;52.224;6.924;2024-03-06T15:03:31;11.20;99.90
43087;DHT22;28708;52.224;6.924;2024-03-06T15:05:57;11.30;99.90
43087;DHT22;28708;52.224;6.924;2024-03-06T15:08:22;11.50;99.90
43087;DHT22;28708;52.224;6.924;2024-03-06T15:10:49;11.70;99.90
43087;DHT22;28708;52.224;6.924;2024-03-06T15:13:17;11.70;99.90
43087;DHT22;28708;52.224;6.924;2024-03-06T15:15:44;11.60;99.90
43087;DHT22;28708;52.224;6.924;2024-03-06T15:18:10;11.60;99.90
43087;DHT22;28708;52.224;6.924;2024-03-06T15:20:35;11.70;99.90
43087;DHT22;28708;52.224;6.924;2024-03-06T15:23:02;11.90;99.90
43087;DHT22;28708;52.224;6.924;2024-03-06T15:25:27;11.80;99.90
43087;DHT22;28708;52.224;6.924;2024-03-06T15:27:53;11.90;99.90
43087;DHT22;28708;52.224;6.924;2024-03-06T15:30:19;11.70;99.90
43087;DHT22;28708;52.224;6.924;2024-03-06T15:32:46;11.50;99.90
43087;DHT22;28708;52.224;6.924;2024-03-06T15:35:12;11.60;99.90
43087;DHT22;28708;52.224;6.924;2024-03-06T15:37:37;11.50;99.90
43087;DHT22;28708;52.224;6.924;2024-03-06T15:40:04;11.60;99.90
43087;DHT22;28708;52.224;6.924;2024-03-06T15:42:32;11.60;99.90
43087;DHT22;28708;52.224;6.924;2024-03-06T15:44:57;11.50;99.90
43087;DHT22;28708;52.224;6.924;2024-03-06T15:47:23;11.50;99.90
43087;DHT22;28708;52.224;6.924;2024-03-06T15:49:49;11.40;99.90
43087;DHT22;28708;52.224;6.924;2024-03-06T15:52:15;11.40;99.90